createdAt,value
2022-08-17T00:01:51.560Z,22.12
2022-08-17T00:04:19.750Z,22.10
2022-08-17T00:06:49.098Z,22.09
2022-08-17T00:09:18.851Z,22.06
2022-08-17T00:12:44.420Z,22.04
2022-08-17T00:14:36.046Z,22.06
2022-08-17T00:17:04.654Z,22.03
2022-08-17T00:19:32.620Z,22.03
2022-08-17T00:22:31.395Z,22.01
2022-08-17T00:24:49.387Z,21.99
2022-08-17T00:27:15.841Z,21.98
2022-08-17T00:29:42.320Z,21.97
2022-08-17T00:33:12.651Z,21.96
2022-08-17T00:34:55.399Z,21.93
2022-08-17T00:37:21.869Z,21.89
2022-08-17T00:39:48.394Z,21.86
2022-08-17T00:42:18.440Z,21.82
2022-08-17T00:44:45.707Z,21.82
2022-08-17T00:47:12.177Z,21.83
2022-08-17T00:49:38.651Z,21.84
2022-08-17T00:52:15.341Z,21.85
2022-08-17T00:54:44.852Z,21.83
2022-08-17T00:57:21.108Z,21.84
2022-08-17T01:00:02.449Z,21.84
2022-08-17T01:02:34.978Z,21.84
2022-08-17T01:05:16.351Z,21.84
2022-08-17T01:07:47.251Z,21.81
2022-08-17T01:10:58.843Z,21.80
2022-08-17T01:13:02.630Z,21.80
2022-08-17T01:15:31.222Z,21.78
2022-08-17T01:17:57.828Z,21.77
2022-08-17T01:20:24.325Z,21.73
2022-08-17T01:22:50.969Z,21.70
2022-08-17T01:25:18.576Z,21.65
2022-08-17T01:27:45.036Z,21.63
2022-08-17T01:30:58.401Z,21.62
2022-08-17T01:32:59.235Z,21.62
2022-08-17T01:35:25.717Z,21.63
2022-08-17T01:37:52.500Z,21.64
2022-08-17T01:40:39.111Z,21.65
2022-08-17T01:43:14.435Z,21.69
2022-08-17T01:45:45.387Z,21.72
2022-08-17T01:48:13.337Z,21.73
2022-08-17T01:50:42.336Z,21.72
2022-08-17T01:53:18.199Z,21.69
2022-08-17T01:55:51.447Z,21.68
2022-08-17T01:58:19.173Z,21.64
2022-08-17T02:01:01.267Z,21.61
2022-08-17T02:03:28.928Z,21.58
2022-08-17T02:05:55.438Z,21.58
2022-08-17T02:08:39.164Z,21.58
2022-08-17T02:11:17.244Z,21.60
2022-08-17T02:13:45.540Z,21.60
2022-08-17T02:16:13.038Z,21.62
2022-08-17T02:18:39.663Z,21.63
2022-08-17T02:21:07.002Z,21.61
2022-08-17T02:23:38.980Z,21.62
2022-08-17T02:26:05.655Z,21.54
2022-08-17T02:28:32.538Z,21.51
2022-08-17T02:31:09.050Z,21.42
2022-08-17T02:33:42.070Z,21.30
2022-08-17T02:36:11.811Z,21.27
2022-08-17T02:38:39.770Z,21.22
2022-08-17T02:41:06.553Z,21.18
2022-08-17T02:43:33.085Z,21.09
2022-08-17T02:48:28.146Z,21.14
2022-08-17T02:50:57.986Z,21.15
2022-08-17T02:53:24.460Z,21.13
2022-08-17T02:55:52.695Z,21.14
2022-08-17T02:58:34.389Z,21.15
2022-08-17T03:01:04.785Z,21.16
2022-08-17T03:03:31.487Z,21.18
2022-08-17T03:05:57.971Z,21.22
2022-08-17T03:08:25.497Z,21.19
2022-08-17T03:10:52.230Z,21.21
2022-08-17T03:13:18.937Z,21.21
2022-08-17T03:15:47.182Z,21.24
2022-08-17T03:18:25.026Z,21.22
2022-08-17T03:20:57.534Z,21.22
2022-08-17T03:23:25.543Z,21.21
2022-08-17T03:25:53.519Z,21.21
2022-08-17T03:28:21.133Z,21.22
2022-08-17T03:30:47.664Z,21.25
2022-08-17T03:33:14.172Z,21.25
2022-08-17T03:35:41.800Z,21.27
2022-08-17T03:38:10.507Z,21.25
2022-08-17T03:40:57.891Z,21.26
2022-08-17T03:43:25.815Z,21.26
2022-08-17T03:46:20.735Z,21.25
2022-08-17T03:49:15.617Z,21.21
2022-08-17T03:52:00.490Z,21.18
2022-08-17T03:54:45.345Z,21.16
2022-08-17T03:57:12.600Z,21.19
2022-08-17T03:59:41.122Z,21.15
2022-08-17T04:02:20.725Z,21.09
2022-08-17T04:04:50.927Z,21.06
2022-08-17T04:07:19.522Z,21.05
2022-08-17T04:09:46.111Z,21.03
2022-08-17T04:12:16.094Z,20.99
2022-08-17T04:14:53.365Z,20.97
2022-08-17T04:17:26.847Z,20.93
2022-08-17T04:22:31.938Z,20.90
2022-08-17T04:25:13.651Z,20.90
2022-08-17T04:27:40.130Z,20.91
2022-08-17T04:30:07.465Z,20.92
2022-08-17T04:33:19.221Z,20.89
2022-08-17T04:35:47.135Z,20.80
2022-08-17T04:38:17.680Z,20.77
2022-08-17T04:41:03.704Z,20.77
2022-08-17T04:43:33.151Z,20.76
2022-08-17T04:46:05.919Z,20.76
2022-08-17T04:48:38.655Z,20.75
2022-08-17T04:51:13.203Z,20.73
2022-08-17T04:53:42.769Z,20.71
2022-08-17T04:56:11.675Z,20.72
2022-08-17T04:58:44.655Z,20.72
2022-08-17T05:01:11.389Z,20.70
2022-08-17T05:03:38.414Z,20.66
2022-08-17T05:06:05.388Z,20.69
2022-08-17T05:08:31.861Z,20.70
2022-08-17T05:10:58.395Z,20.70
2022-08-17T05:13:27.276Z,20.71
2022-08-17T05:15:57.075Z,20.66
2022-08-17T05:18:24.748Z,20.66
2022-08-17T05:20:52.459Z,20.65
2022-08-17T05:23:22.152Z,20.64
2022-08-17T05:25:51.742Z,20.66
2022-08-17T05:28:27.330Z,20.67
2022-08-17T05:30:56.536Z,20.70
2022-08-17T05:33:26.685Z,20.69
2022-08-17T05:35:55.391Z,20.64
2022-08-17T05:38:24.353Z,20.64
2022-08-17T05:40:51.374Z,20.65
2022-08-17T05:43:21.297Z,20.65
2022-08-17T05:46:23.315Z,20.64
2022-08-17T05:48:53.568Z,20.63
2022-08-17T05:51:40.238Z,20.60
2022-08-17T05:54:20.154Z,20.57
2022-08-17T05:56:54.546Z,20.55
2022-08-17T05:59:35.528Z,20.54
2022-08-17T06:02:47.641Z,20.51
2022-08-17T06:05:37.903Z,20.52
2022-08-17T06:08:19.381Z,20.53
2022-08-17T06:10:53.188Z,20.55
2022-08-17T06:13:54.315Z,20.57
2022-08-17T06:16:32.994Z,20.61
2022-08-17T06:19:11.058Z,20.67
2022-08-17T06:21:42.637Z,20.68
2022-08-17T06:24:34.215Z,20.76
2022-08-17T06:27:09.688Z,20.80
2022-08-17T06:29:50.637Z,20.81
2022-08-17T06:32:17.286Z,20.83
2022-08-17T06:34:45.821Z,20.86
2022-08-17T06:37:27.297Z,20.88
2022-08-17T06:39:59.800Z,20.93
2022-08-17T06:43:06.042Z,20.98
2022-08-17T06:46:01.699Z,21.02
2022-08-17T06:48:46.937Z,21.02
2022-08-17T06:51:23.838Z,21.04
2022-08-17T06:54:02.696Z,21.06
2022-08-17T06:56:54.144Z,21.09
2022-08-17T06:59:54.912Z,21.10
2022-08-17T07:02:53.223Z,21.14
2022-08-17T07:05:23.628Z,21.15
2022-08-17T07:10:20.645Z,21.19
2022-08-17T07:12:50.096Z,21.19
2022-08-17T07:15:23.234Z,21.18
2022-08-17T07:17:49.911Z,21.18
2022-08-17T07:20:23.069Z,21.20
2022-08-17T07:23:04.584Z,21.22
2022-08-17T07:25:31.119Z,21.26
2022-08-17T07:28:02.377Z,21.26
2022-08-17T07:30:47.016Z,21.26
2022-08-17T07:33:20.044Z,21.24
2022-08-17T07:35:48.381Z,21.26
2022-08-17T07:38:25.416Z,21.23
2022-08-17T07:41:06.101Z,21.21
2022-08-17T07:43:41.810Z,21.16
2022-08-17T07:46:30.173Z,21.06
2022-08-17T07:49:03.116Z,20.96
2022-08-17T07:51:31.305Z,20.88
2022-08-17T07:54:22.520Z,20.85
2022-08-17T07:56:53.565Z,20.86
2022-08-17T07:59:28.043Z,20.81
2022-08-17T08:01:58.880Z,20.84
2022-08-17T08:07:17.657Z,20.92
2022-08-17T08:09:59.357Z,20.94
2022-08-17T08:12:34.004Z,20.98
2022-08-17T08:15:34.209Z,20.98
2022-08-17T08:18:03.916Z,21.01
2022-08-17T08:20:51.896Z,21.03
2022-08-17T08:23:34.490Z,21.05
2022-08-17T08:26:04.150Z,21.10
2022-08-17T08:28:35.902Z,21.13
2022-08-17T08:31:25.387Z,21.18
2022-08-17T08:34:53.395Z,21.21
2022-08-17T08:37:25.148Z,21.30
2022-08-17T08:40:11.008Z,21.39
2022-08-17T08:43:10.094Z,21.48
2022-08-17T08:45:50.653Z,21.57
2022-08-17T08:48:53.808Z,21.63
2022-08-17T08:51:23.717Z,21.64
2022-08-17T08:54:03.304Z,21.65
2022-08-17T08:57:11.547Z,21.71
2022-08-17T08:59:42.162Z,21.61
2022-08-17T09:02:29.379Z,21.53
2022-08-17T09:05:15.537Z,21.48
2022-08-17T09:07:48.332Z,21.49
2022-08-17T09:10:52.486Z,21.45
2022-08-17T09:13:35.143Z,21.39
2022-08-17T09:16:20.243Z,21.46
2022-08-17T09:19:00.389Z,21.53
2022-08-17T09:21:47.880Z,21.54
2022-08-17T09:24:54.637Z,21.54
2022-08-17T09:27:28.185Z,21.52
2022-08-17T09:30:00.836Z,21.49
2022-08-17T09:32:42.638Z,21.43
2022-08-17T09:35:16.231Z,21.46
2022-08-17T09:37:56.293Z,21.39
2022-08-17T09:40:30.488Z,21.31
2022-08-17T09:43:06.740Z,21.23
2022-08-17T09:45:51.086Z,20.99
2022-08-17T09:48:30.990Z,20.82
2022-08-17T09:51:11.973Z,20.66
2022-08-17T09:53:39.517Z,20.54
2022-08-17T09:56:17.434Z,20.47
2022-08-17T09:58:56.406Z,20.40
2022-08-17T10:01:39.915Z,20.45
2022-08-17T10:04:29.324Z,20.54
2022-08-17T10:07:42.439Z,20.69
2022-08-17T10:10:21.173Z,20.89
2022-08-17T10:13:01.001Z,21.03
2022-08-17T10:16:01.854Z,21.25
2022-08-17T10:18:33.191Z,21.33
2022-08-17T10:21:24.877Z,21.40
2022-08-17T10:24:21.501Z,21.52
2022-08-17T10:26:56.579Z,21.61
2022-08-17T10:29:44.188Z,21.63
2022-08-17T10:32:40.775Z,21.70
2022-08-17T10:35:13.540Z,21.72
2022-08-17T10:37:42.973Z,21.82
2022-08-17T10:40:34.792Z,21.80
2022-08-17T10:43:25.714Z,21.90
2022-08-17T10:46:27.965Z,21.96
2022-08-17T10:49:18.197Z,22.03
2022-08-17T10:51:52.373Z,21.96
2022-08-17T10:54:24.670Z,21.98
2022-08-17T10:56:57.908Z,22.10
2022-08-17T10:59:36.208Z,22.06
2022-08-17T11:02:15.010Z,22.09
2022-08-17T11:05:01.255Z,22.11
2022-08-17T11:07:43.806Z,22.13
2022-08-17T11:10:32.091Z,22.13
2022-08-17T11:13:30.589Z,22.12
2022-08-17T11:16:13.218Z,22.12
2022-08-17T11:19:10.474Z,22.15
2022-08-17T11:22:02.529Z,22.10
2022-08-17T11:24:43.429Z,21.97
2022-08-17T11:27:24.851Z,21.85
2022-08-17T11:30:05.944Z,21.77
2022-08-17T11:32:37.298Z,21.72
2022-08-17T11:35:21.945Z,21.69
2022-08-17T11:38:19.390Z,21.64
2022-08-17T11:41:14.687Z,21.53
2022-08-17T11:43:59.013Z,21.51
2022-08-17T11:47:30.657Z,21.46
2022-08-17T11:50:48.598Z,21.32
2022-08-17T11:53:39.905Z,21.26
2022-08-17T11:56:06.597Z,21.18
2022-08-17T11:58:37.892Z,21.12
2022-08-17T12:01:13.736Z,21.07
2022-08-17T12:03:55.683Z,21.02
2022-08-17T12:06:43.984Z,20.91
2022-08-17T12:09:13.516Z,20.92
2022-08-17T12:12:01.561Z,20.94
2022-08-17T12:15:08.332Z,20.90
2022-08-17T12:17:41.244Z,20.86
2022-08-17T12:20:14.444Z,20.88
2022-08-17T12:23:04.897Z,20.85
2022-08-17T12:25:46.616Z,20.85
2022-08-17T12:28:32.629Z,20.92
2022-08-17T12:31:20.377Z,21.03
2022-08-17T12:33:48.329Z,21.03
2022-08-17T12:36:18.732Z,21.01
2022-08-17T12:38:53.210Z,21.02
2022-08-17T12:41:34.136Z,21.04
2022-08-17T12:44:23.956Z,21.03
2022-08-17T12:47:02.194Z,21.00
2022-08-17T12:49:37.237Z,20.98
2022-08-17T12:52:25.942Z,20.90
2022-08-17T12:55:02.434Z,20.87
2022-08-17T12:57:56.687Z,20.87
2022-08-17T13:00:32.896Z,20.85
2022-08-17T13:03:15.755Z,20.81
2022-08-17T13:05:55.197Z,20.85
2022-08-17T13:08:27.776Z,20.90
2022-08-17T13:11:02.850Z,20.91
2022-08-17T13:13:33.054Z,20.95
2022-08-17T13:16:09.443Z,20.99
2022-08-17T13:18:40.677Z,21.00
2022-08-17T13:21:22.132Z,21.01
2022-08-17T13:24:11.250Z,21.01
2022-08-17T13:26:45.839Z,20.99
2022-08-17T13:29:26.956Z,20.97
2022-08-17T13:32:12.888Z,20.97
2022-08-17T13:35:12.491Z,20.95
2022-08-17T13:37:35.911Z,20.97
2022-08-17T13:40:11.623Z,20.98
2022-08-17T13:42:52.924Z,20.99
2022-08-17T13:45:36.168Z,21.01
2022-08-17T13:48:16.279Z,21.04
2022-08-17T13:50:52.133Z,21.03
2022-08-17T13:53:20.223Z,21.04
2022-08-17T13:55:58.618Z,21.02
2022-08-17T13:58:34.499Z,21.05
2022-08-17T14:01:35.050Z,21.07
2022-08-17T14:04:08.544Z,21.11
2022-08-17T14:06:59.945Z,21.11
2022-08-17T14:09:37.159Z,21.12
2022-08-17T14:12:09.239Z,21.16
2022-08-17T14:14:36.347Z,21.19
2022-08-17T14:17:04.499Z,21.19
2022-08-17T14:19:30.975Z,21.25
2022-08-17T14:21:59.042Z,21.32
2022-08-17T14:24:31.354Z,21.35
2022-08-17T14:26:59.808Z,21.44
2022-08-17T14:29:28.776Z,21.54
2022-08-17T14:31:56.846Z,21.57
2022-08-17T14:34:24.750Z,21.58
2022-08-17T14:36:52.283Z,21.62
2022-08-17T14:39:19.440Z,21.65
2022-08-17T14:41:46.301Z,21.70
2022-08-17T14:44:13.294Z,21.76
2022-08-17T14:46:41.831Z,21.80
2022-08-17T14:49:11.805Z,21.86
2022-08-17T14:51:43.606Z,21.93
2022-08-17T14:54:34.169Z,21.93
2022-08-17T14:57:23.262Z,21.87
2022-08-17T14:59:45.577Z,21.87
2022-08-17T15:02:13.180Z,21.87
2022-08-17T15:04:44.862Z,21.84
2022-08-17T15:07:11.985Z,21.84
2022-08-17T15:09:39.025Z,21.84
2022-08-17T15:12:06.610Z,21.82
2022-08-17T15:14:35.055Z,21.79
2022-08-17T15:17:02.795Z,21.76
2022-08-17T15:19:29.282Z,21.72
2022-08-17T15:21:55.856Z,21.66
2022-08-17T15:24:22.342Z,21.65
2022-08-17T15:26:48.795Z,21.70
2022-08-17T15:29:15.273Z,21.69
2022-08-17T15:31:41.888Z,21.70
2022-08-17T15:34:08.419Z,21.69
2022-08-17T15:36:35.881Z,21.69
2022-08-17T15:39:03.110Z,21.69
2022-08-17T15:41:29.697Z,21.75
2022-08-17T15:43:56.452Z,21.81
2022-08-17T15:46:25.583Z,21.92
2022-08-17T15:48:58.201Z,22.05
2022-08-17T15:51:34.018Z,22.18
2022-08-17T15:54:04.221Z,22.22
2022-08-17T15:56:41.434Z,22.27
2022-08-17T15:59:08.258Z,22.34
2022-08-17T16:03:01.492Z,22.36
2022-08-17T16:04:30.213Z,22.39
2022-08-17T16:06:57.920Z,22.41
2022-08-17T16:09:24.378Z,22.41
2022-08-17T16:11:53.886Z,22.42
2022-08-17T16:14:22.364Z,22.47
2022-08-17T16:16:50.502Z,22.47
2022-08-17T16:19:17.097Z,22.41
2022-08-17T16:21:43.541Z,22.38
2022-08-17T16:24:12.872Z,22.31
2022-08-17T16:26:41.355Z,22.29
2022-08-17T16:29:08.367Z,22.26
2022-08-17T16:31:36.162Z,22.26
2022-08-17T16:34:17.045Z,22.26
2022-08-17T16:36:55.166Z,22.21
2022-08-17T16:39:27.226Z,22.21
2022-08-17T16:41:54.111Z,22.18
2022-08-17T16:44:21.716Z,22.17
2022-08-17T16:46:49.025Z,22.20
2022-08-17T16:49:35.315Z,22.15
2022-08-17T16:52:06.045Z,22.09
2022-08-17T16:54:32.669Z,22.08
2022-08-17T16:56:59.139Z,22.08
2022-08-17T16:59:35.756Z,22.04
2022-08-17T17:02:10.906Z,22.00
2022-08-17T17:04:55.058Z,21.98
2022-08-17T17:07:44.055Z,21.98
2022-08-17T17:10:15.570Z,22.01
2022-08-17T17:13:03.866Z,21.99
2022-08-17T17:15:42.937Z,22.01
2022-08-17T17:18:12.690Z,22.04
2022-08-17T17:20:47.793Z,22.01
2022-08-17T17:23:41.154Z,22.04
2022-08-17T17:26:24.621Z,22.05
2022-08-17T17:28:54.034Z,22.03
2022-08-17T17:31:23.842Z,22.01
2022-08-17T17:33:55.694Z,22.00
2022-08-17T17:36:39.962Z,21.98
2022-08-17T17:39:23.461Z,21.94
2022-08-17T17:41:58.463Z,21.92
2022-08-17T17:44:29.747Z,21.89
2022-08-17T17:47:00.632Z,21.87
2022-08-17T17:49:30.954Z,21.84
2022-08-17T17:52:37.820Z,21.81
2022-08-17T17:55:26.126Z,21.82
2022-08-17T17:57:58.748Z,21.79
2022-08-17T18:00:34.138Z,21.78
2022-08-17T18:03:24.411Z,21.76
2022-08-17T18:05:57.022Z,21.72
2022-08-17T18:08:32.415Z,21.71
2022-08-17T18:11:26.774Z,21.71
2022-08-17T18:14:04.628Z,21.68
2022-08-17T18:16:32.910Z,21.64
2022-08-17T18:19:00.318Z,21.61
2022-08-17T18:21:39.564Z,21.56
2022-08-17T18:24:08.615Z,21.54
2022-08-17T18:26:45.010Z,21.52
2022-08-17T18:29:31.353Z,21.46
2022-08-17T18:32:32.358Z,21.45
2022-08-17T18:35:28.316Z,21.40
2022-08-17T18:38:22.213Z,21.38
2022-08-17T18:40:59.327Z,21.35
2022-08-17T18:43:43.881Z,21.31
2022-08-17T18:46:29.151Z,21.27
2022-08-17T18:49:06.829Z,21.21
2022-08-17T18:51:41.780Z,21.15
2022-08-17T18:54:14.384Z,21.11
2022-08-17T18:57:02.205Z,21.09
2022-08-17T18:59:42.365Z,20.99
2022-08-17T19:02:20.673Z,20.93
2022-08-17T19:04:55.910Z,20.85
2022-08-17T19:07:23.137Z,20.84
2022-08-17T19:10:06.829Z,20.85
2022-08-17T19:12:43.101Z,20.82
2022-08-17T19:15:12.658Z,20.81
2022-08-17T19:17:53.970Z,20.81
2022-08-17T19:20:31.576Z,20.78
2022-08-17T19:23:13.686Z,20.79
2022-08-17T19:25:48.629Z,20.73
2022-08-17T19:28:30.005Z,20.67
2022-08-17T19:30:59.542Z,20.67
2022-08-17T19:33:27.239Z,20.66
2022-08-17T19:36:12.850Z,20.67
2022-08-17T19:38:52.999Z,20.66
2022-08-17T19:41:30.136Z,20.65
2022-08-17T19:44:02.574Z,20.67
2022-08-17T19:46:42.977Z,20.63
2022-08-17T19:49:33.766Z,20.61
2022-08-17T19:52:40.241Z,20.60
2022-08-17T19:55:20.606Z,20.59
2022-08-17T19:58:08.359Z,20.58
2022-08-17T20:00:41.859Z,20.59
2022-08-17T20:03:16.658Z,20.60
2022-08-17T20:06:14.231Z,20.59
2022-08-17T20:08:53.387Z,20.57
2022-08-17T20:11:26.603Z,20.57
2022-08-17T20:14:03.342Z,20.54
2022-08-17T20:16:32.425Z,20.55
2022-08-17T20:19:03.577Z,20.53
2022-08-17T20:21:49.924Z,20.53
2022-08-17T20:24:39.348Z,20.51
2022-08-17T20:27:32.122Z,20.49
2022-08-17T20:30:00.941Z,20.46
2022-08-17T20:32:31.196Z,20.47
2022-08-17T20:35:19.792Z,20.45
2022-08-17T20:38:02.168Z,20.43
2022-08-17T20:41:00.322Z,20.38
2022-08-17T20:43:29.780Z,20.32
2022-08-17T20:46:06.371Z,20.26
2022-08-17T20:48:46.758Z,20.20
2022-08-17T20:51:22.862Z,20.19
2022-08-17T20:53:49.351Z,20.16
2022-08-17T20:56:43.664Z,20.13
2022-08-17T20:59:24.030Z,20.12
2022-08-17T21:02:07.996Z,20.09
2022-08-17T21:04:43.938Z,20.05
2022-08-17T21:07:30.091Z,19.97
2022-08-17T21:10:11.630Z,19.92
2022-08-17T21:12:39.969Z,19.92
2022-08-17T21:15:20.529Z,19.89
2022-08-17T21:17:58.966Z,19.88
2022-08-17T21:20:43.793Z,19.82
2022-08-17T21:23:20.394Z,19.77
2022-08-17T21:26:09.919Z,19.80
2022-08-17T21:29:29.759Z,19.76
2022-08-17T21:32:05.322Z,19.69
2022-08-17T21:34:35.949Z,19.70
2022-08-17T21:37:20.564Z,19.72
2022-08-17T21:39:52.740Z,19.71
2022-08-17T21:42:32.219Z,19.72
2022-08-17T21:45:25.422Z,19.71
2022-08-17T21:48:15.192Z,19.69
2022-08-17T21:50:46.108Z,19.65
2022-08-17T21:53:33.709Z,19.63
2022-08-17T21:56:00.858Z,19.59
2022-08-17T21:58:31.998Z,19.58
2022-08-17T22:01:22.217Z,19.53
2022-08-17T22:04:18.184Z,19.52
2022-08-17T22:06:57.419Z,19.53
2022-08-17T22:09:42.928Z,19.54
2022-08-17T22:12:19.292Z,19.52
2022-08-17T22:14:58.129Z,19.49
2022-08-17T22:17:35.530Z,19.47
2022-08-17T22:20:06.080Z,19.47
2022-08-17T22:23:00.264Z,19.47
2022-08-17T22:25:28.294Z,19.43
2022-08-17T22:27:55.502Z,19.40
2022-08-17T22:30:39.957Z,19.39
2022-08-17T22:33:42.690Z,19.33
2022-08-17T22:36:11.990Z,19.31
2022-08-17T22:38:40.596Z,19.26
2022-08-17T22:41:39.136Z,19.20
2022-08-17T22:44:14.162Z,19.14
2022-08-17T22:47:11.553Z,19.14
2022-08-17T22:49:54.117Z,19.13
2022-08-17T22:53:02.421Z,19.12
2022-08-17T22:55:52.406Z,19.08
2022-08-17T22:58:41.804Z,19.04
2022-08-17T23:01:25.911Z,19.03
2022-08-17T23:03:54.991Z,19.03
2022-08-17T23:06:21.548Z,18.99
2022-08-17T23:08:54.579Z,18.96
2022-08-17T23:11:36.740Z,18.92
2022-08-17T23:14:15.589Z,18.90
2022-08-17T23:16:42.655Z,18.87
2022-08-17T23:19:15.328Z,18.84
2022-08-17T23:21:48.686Z,18.84
2022-08-17T23:24:22.632Z,18.83
2022-08-17T23:26:49.548Z,18.80
2022-08-17T23:29:16.624Z,18.76
2022-08-17T23:31:43.216Z,18.75
2022-08-17T23:34:12.880Z,18.73
2022-08-17T23:36:39.486Z,18.68
2022-08-17T23:39:07.304Z,18.64
2022-08-17T23:41:38.423Z,18.62
2022-08-17T23:44:06.410Z,18.65
2022-08-17T23:46:34.364Z,18.64
2022-08-17T23:49:01.038Z,18.63
2022-08-17T23:51:37.110Z,18.61
2022-08-17T23:54:14.344Z,18.61
2022-08-17T23:56:46.894Z,18.60
2022-08-17T23:59:22.877Z,18.58
